Time;durP1;ratioP1;P1;durP2;ratioP2;P2;SDS_P1;SDS_P2;PMS_P1;PMS_P2;Temp;Humidity;BMP_temperature;BMP_pressure;BME280_temperature;BME280_humidity;BME280_pressure;Samples;Min_cycle;Max_cycle;Signal;HPM_P1;HPM_P2
2022/11/07 01:16:14;1012342.00;3.37;1754.34;0.00;0.00;0.62;;;;;15.50;1.00;;;;;;2262479;61;1876;-89
2022/11/07 01:43:56;1105512.00;3.69;1920.28;0.00;0.00;0.62;;;;;16.10;1.00;;;;;;2266277;61;1228;-89
2022/11/07 01:53:58;311384.00;1.04;537.49;0.00;0.00;0.62;;;;;16.50;1.00;;;;;;1704567;41;3201;-89
2022/11/07 02:11:40;1355550.00;4.52;2374.13;0.00;0.00;0.62;;;;;16.60;1.00;;;;;;2266066;61;1337;-87
2022/11/07 02:14:07;185180.00;0.62;320.41;5984.00;0.02;10.99;;;;;16.40;1.00;;;;;;2264640;61;1751;-89
2022/11/07 02:16:36;282551.00;0.94;487.92;0.00;0.00;0.62;;;;;16.30;1.00;;;;;;2264597;61;2002;-90
2022/11/07 02:19:08;173070.00;0.58;299.55;0.00;0.00;0.62;;;;;16.40;1.00;;;;;;2264663;61;974;-90
2022/11/07 02:21:48;154728.00;0.52;267.96;0.00;0.00;0.62;;;;;16.30;1.00;;;;;;2265264;61;1599;-90
2022/11/07 02:24:25;385973.00;1.29;665.69;139580.00;0.47;241.85;;;;;16.30;1.00;;;;;;2265386;61;993;-90
2022/11/07 02:26:56;362000.00;1.21;624.49;80871.00;0.27;140.54;;;;;16.30;1.00;;;;;;2265338;61;1446;-89
2022/11/07 02:29:25;292875.00;0.98;505.67;81613.00;0.27;141.82;;;;;16.40;1.00;;;;;;2265412;61;1072;-88
2022/11/07 02:32:01;356087.00;1.19;614.32;85968.00;0.29;149.35;;;;;16.50;1.00;;;;;;2265358;61;1089;-90
2022/11/07 06:13:29;1749530.00;5.83;3122.07;103167.00;0.34;179.04;;;;;17.30;1.00;;;;;;2281532;41;3503;-87
2022/11/07 06:18:29;1325312.00;4.42;2318.50;0.00;0.00;0.62;;;;;17.50;1.00;;;;;;2387492;40;3421;-85
2022/11/07 06:20:56;1393309.00;4.64;2443.92;67682.00;0.23;117.75;;;;;17.60;1.00;;;;;;1964900;41;3564;-86
2022/11/07 06:28:22;1282586.00;4.28;2240.27;16476.00;0.05;29.17;;;;;17.60;1.00;;;;;;1583311;41;3462;-87
2022/11/07 06:30:52;1107454.00;3.69;1923.76;132900.00;0.44;230.33;;;;;17.60;1.00;;;;;;2292049;41;3611;-87
2022/11/07 06:55:59;911102.00;3.04;1575.63;0.00;0.00;0.62;;;;;16.20;1.00;;;;;;2299214;40;3637;-88
2022/11/07 07:03:32;717196.00;2.39;1237.07;0.00;0.00;0.62;;;;;16.30;1.00;;;;;;2279837;40;3484;-89
2022/11/07 07:13:27;788920.00;2.63;1361.81;0.00;0.00;0.62;;;;;16.60;1.00;;;;;;2273106;55;3697;-87
2022/11/07 07:20:53;1291077.00;4.30;2255.78;120880.00;0.40;209.60;;;;;16.00;1.00;;;;;;2276891;40;3532;-87
2022/11/07 07:25:54;869641.00;2.90;1502.86;0.00;0.00;0.62;;;;;16.20;1.00;;;;;;2265924;61;1345;-87
2022/11/07 08:27:17;1349380.00;4.50;2362.77;0.00;0.00;0.62;;;;;17.60;1.00;;;;;;2492209;55;3525;31
2022/11/07 09:08:07;2039073.00;6.80;3704.86;130469.00;0.43;226.14;;;;;17.50;1.00;;;;;;2258001;61;1374;-88
2022/11/07 09:13:32;617870.00;2.06;1065.09;185314.00;0.62;320.64;;;;;17.80;1.00;;;;;;2519113;56;2186;31
2022/11/07 19:07:51;1223206.00;4.08;2132.23;0.00;0.00;0.62;;;;;17.80;1.00;;;;;;2263732;61;1341;-83
2022/11/07 19:34:53;399636.00;1.33;689.18;0.00;0.00;0.62;;;;;14.50;1.00;;;;;;2546922;40;2183;31
2022/11/07 19:57:06;191735.00;0.64;331.70;0.00;0.00;0.62;;;;;14.50;1.00;;;;;;2522128;56;2137;31
2022/11/07 20:04:39;150982.00;0.50;261.50;0.00;0.00;0.62;;;;;16.00;1.00;;;;;;1839831;41;3082;-86
2022/11/07 20:07:30;250624.00;0.84;433.02;26314.00;0.09;46.20;;;;;15.50;1.00;;;;;;2264011;61;1289;-85
2022/11/07 20:12:34;123571912.00;411.91;76445000.00;0.00;0.00;0.62;;;;;14.50;1.00;;;;;;2318893;40;3498;-82
2022/11/07 20:15:04;682926.00;2.28;1177.64;0.00;0.00;0.62;;;;;14.00;1.00;;;;;;2286464;56;3768;-86
2022/11/07 20:17:31;1357518.00;4.53;2377.76;150174.00;0.50;260.11;;;;;13.70;1.00;;;;;;2291630;40;3631;-84
2022/11/07 20:19:59;553799.00;1.85;954.51;0.00;0.00;0.62;;;;;13.30;1.00;;;;;;2274911;40;3591;-86
2022/11/07 20:25:01;183616.00;0.61;317.72;34950.00;0.12;61.15;;;;;13.10;1.00;;;;;;2416029;40;3609;-83
2022/11/07 20:27:30;1894789.00;6.32;3410.48;54694.00;0.18;95.30;;;;;13.00;1.00;;;;;;2265346;61;1621;-85
2022/11/07 20:35:10;296171.00;0.99;511.34;0.00;0.00;0.62;;;;;12.90;1.00;;;;;;2442031;40;2131;-83
2022/11/07 20:41:17;512082.00;1.71;882.63;0.00;0.00;0.62;;;;;12.30;1.00;;;;;;2250393;61;871;-85
2022/11/07 20:43:49;369155.00;1.23;636.78;0.00;0.00;0.62;;;;;12.00;2.10;;;;;;2248334;62;1012;-86
2022/11/07 20:46:21;324531.00;1.08;560.09;0.00;0.00;0.62;;;;;11.90;2.20;;;;;;2248167;61;1583;-84
2022/11/07 20:48:54;269114.00;0.90;464.82;63442.00;0.21;110.43;;;;;11.80;2.30;;;;;;2261687;55;3990;-86
2022/11/07 20:51:30;313245.00;1.04;540.69;0.00;0.00;0.62;;;;;12.10;2.30;;;;;;2270010;41;3599;-86
2022/11/07 20:54:02;450572.00;1.50;776.77;0.00;0.00;0.62;;;;;12.10;1.50;;;;;;2263922;61;1445;-85
2022/11/07 20:56:46;417197.00;1.39;719.37;0.00;0.00;0.62;;;;;12.30;1.30;;;;;;2327078;41;3746;-86
2022/11/07 20:59:15;997540.00;3.33;1728.12;150653.00;0.50;260.93;;;;;12.30;1.00;;;;;;2263949;61;1927;-85
2022/11/07 21:01:44;664349.00;2.21;1145.47;161662.00;0.54;279.90;;;;;12.20;1.00;;;;;;2263711;61;1811;-86
2022/11/07 21:04:26;643451.00;2.14;1109.31;86918.00;0.29;150.99;;;;;12.00;1.00;;;;;;2287097;56;3765;-84
2022/11/07 21:07:04;785410.00;2.62;1355.69;96103.00;0.32;166.84;;;;;12.20;1.30;;;;;;2273421;40;3595;-86
2022/11/07 21:09:35;129775288.00;432.58;88557912.00;110493.00;0.37;191.68;;;;;12.10;1.00;;;;;;2263929;61;1660;-85
2022/11/07 21:12:05;1688271.00;5.63;3002.66;182192.00;0.61;315.26;;;;;12.10;2.00;;;;;;2263799;61;1586;-86
2022/11/07 21:14:44;1437178.00;4.79;2525.46;151262.00;0.50;261.98;;;;;12.10;1.80;;;;;;2271738;55;3752;-87
2022/11/07 21:17:15;1556024.00;5.19;2748.99;129185.00;0.43;223.92;;;;;12.10;1.00;;;;;;2328219;56;3750;-87
2022/11/07 21:19:44;1282095.00;4.27;2239.37;82730.00;0.28;143.75;;;;;12.20;1.50;;;;;;2264061;61;1005;-86
2022/11/07 21:24:49;1722061.00;5.74;3068.37;68205.00;0.23;118.66;;;;;12.10;1.30;;;;;;2159230;40;3457;-85
2022/11/07 21:29:56;1644556.00;5.48;2918.20;106033.00;0.35;183.98;;;;;12.20;1.00;;;;;;1233051;41;3225;-86
2022/11/07 21:32:28;1752468.00;5.84;3127.83;124816.00;0.42;216.39;;;;;12.10;1.00;;;;;;2271065;56;3750;-87
2022/11/07 21:40:13;823924.00;2.75;1422.88;0.00;0.00;0.62;;;;;11.80;1.20;;;;;;2284006;41;2013;-86
2022/11/07 21:42:53;406716.00;1.36;701.35;22011.00;0.07;38.75;;;;;11.80;1.00;;;;;;2298201;40;3566;-85
2022/11/07 21:47:55;1857141.00;6.19;3335.00;0.00;0.00;0.62;;;;;11.80;1.00;;;;;;2302049;56;3613;-86
2022/11/07 21:50:24;490017.00;1.63;844.64;0.00;0.00;0.62;;;;;11.70;1.40;;;;;;2271455;61;1582;-85
2022/11/07 21:55:32;824709.00;2.75;1424.25;2502.00;0.01;4.96;;;;;11.80;1.60;;;;;;1958802;60;1991;-85
2022/11/07 21:57:58;74710.00;0.25;129.90;0.00;0.00;0.62;;;;;11.70;2.10;;;;;;2259731;61;2022;-85
2022/11/07 22:00:30;181069.00;0.60;313.33;0.00;0.00;0.62;;;;;11.80;1.20;;;;;;2270444;56;3721;-85
2022/11/07 22:03:00;501836.00;1.67;864.98;0.00;0.00;0.62;;;;;11.60;1.00;;;;;;2294309;56;3762;-84
2022/11/07 22:05:29;684733.00;2.28;1180.77;0.00;0.00;0.62;;;;;11.30;1.50;;;;;;2279180;40;3629;-85
2022/11/07 22:08:04;217122.00;0.72;375.39;0.00;0.00;0.62;;;;;11.10;2.80;;;;;;2271730;61;1644;-83
2022/11/07 22:10:35;191824.00;0.64;331.85;0.00;0.00;0.62;;;;;11.00;3.40;;;;;;2278342;56;3761;-83
2022/11/07 22:13:04;298365.00;0.99;515.11;0.00;0.00;0.62;;;;;10.90;3.40;;;;;;2267635;61;1793;-84
2022/11/07 22:15:34;263190.00;0.88;454.63;0.00;0.00;0.62;;;;;10.90;3.80;;;;;;2267733;61;1612;-85
2022/11/07 22:18:04;319100.00;1.06;550.75;0.00;0.00;0.62;;;;;11.00;3.10;;;;;;2273001;56;3591;-85
2022/11/07 22:20:32;751552.00;2.51;1296.76;48784.00;0.16;85.08;;;;;11.10;3.10;;;;;;2268377;56;3704;-86
2022/11/07 22:22:59;372730.00;1.24;642.93;0.00;0.00;0.62;;;;;11.00;2.90;;;;;;2273002;40;3638;-83
2022/11/07 22:25:29;396494.00;1.32;683.78;21281.00;0.07;37.49;;;;;11.10;2.50;;;;;;2267920;61;1740;-85
2022/11/07 22:27:59;304767.00;1.02;526.11;148.00;0.00;0.88;;;;;11.10;2.20;;;;;;2267791;61;1400;-84
2022/11/07 22:30:26;404388.00;1.35;697.35;91858.00;0.31;159.52;;;;;10.80;2.90;;;;;;2267961;61;1087;-85
2022/11/07 22:32:53;412388.00;1.37;711.10;0.00;0.00;0.62;;;;;11.00;2.40;;;;;;2267746;61;1071;-84
2022/11/07 22:35:20;215758.00;0.72;373.04;0.00;0.00;0.62;;;;;11.10;3.10;;;;;;2267901;61;1059;-84
2022/11/07 22:37:47;466374.00;1.55;803.95;0.00;0.00;0.62;;;;;11.20;2.70;;;;;;2268240;61;1993;-84
2022/11/07 22:40:14;402291.00;1.34;693.74;0.00;0.00;0.62;;;;;11.10;2.60;;;;;;2268600;61;1612;-85
2022/11/07 22:42:42;174695.00;0.58;302.35;0.00;0.00;0.62;;;;;11.10;2.70;;;;;;2268529;61;987;-86
2022/11/07 22:45:11;253899.00;0.85;438.66;0.00;0.00;0.62;;;;;11.20;3.10;;;;;;2268484;61;968;-86
2022/11/07 22:47:38;385846.00;1.29;665.47;0.00;0.00;0.62;;;;;11.10;2.80;;;;;;2268446;61;1532;-85
2022/11/07 22:55:04;877619.00;2.93;1516.84;0.00;0.00;0.62;;;;;11.10;2.40;;;;;;2261940;61;1374;-84
2022/11/07 22:57:31;252706.00;0.84;436.60;0.00;0.00;0.62;;;;;11.00;2.60;;;;;;2260264;61;1301;-84
2022/11/07 22:59:58;117262928.00;390.88;65314476.00;547.00;0.00;1.57;;;;;11.10;2.20;;;;;;2260404;61;1137;-85
2022/11/07 23:02:36;228572.00;0.76;395.09;48527.00;0.16;84.64;;;;;11.10;2.60;;;;;;2260499;61;1122;-85
2022/11/07 23:05:04;147622.00;0.49;255.71;0.00;0.00;0.62;;;;;11.10;2.30;;;;;;2260475;61;1071;-85
2022/11/07 23:07:31;208264.00;0.69;360.15;0.00;0.00;0.62;;;;;11.10;1.90;;;;;;2264384;40;3648;-85
2022/11/07 23:09:58;171995.00;0.57;297.70;0.00;0.00;0.62;;;;;10.90;2.60;;;;;;2268497;61;1043;-84
2022/11/07 23:12:26;440894.00;1.47;760.12;50177.00;0.17;87.49;;;;;11.10;1.70;;;;;;2268363;61;1164;-84
2022/11/07 23:17:24;1040747.00;3.47;1804.78;25684.00;0.09;45.11;;;;;10.60;2.40;;;;;;2262464;61;1338;-85
2022/11/07 23:19:55;338063.00;1.13;583.34;0.00;0.00;0.62;;;;;10.60;2.70;;;;;;2261146;61;1940;-85
2022/11/07 23:22:25;81101.00;0.27;140.94;0.00;0.00;0.62;;;;;10.70;2.30;;;;;;2261132;61;1248;-85
2022/11/07 23:24:53;289786.00;0.97;500.36;30040.00;0.10;52.65;;;;;10.50;1.90;;;;;;2261162;61;1160;-85
2022/11/07 23:27:20;531824.00;1.77;916.63;24646.00;0.08;43.31;;;;;10.50;2.50;;;;;;2261104;61;1273;-85
2022/11/07 23:29:47;285257.00;0.95;492.58;0.00;0.00;0.62;;;;;10.50;2.20;;;;;;2261022;61;1151;-82
2022/11/07 23:32:14;304643.00;1.02;525.90;0.00;0.00;0.62;;;;;10.60;1.60;;;;;;2261105;61;960;-85
2022/11/07 23:34:41;376982.00;1.26;650.24;26724.00;0.09;46.91;;;;;10.40;2.00;;;;;;2260543;61;1593;-84
2022/11/07 23:37:13;360357.00;1.20;621.66;32456.00;0.11;56.83;;;;;10.50;2.20;;;;;;2260442;61;1302;-85
2022/11/07 23:39:41;384829.00;1.28;663.73;0.00;0.00;0.62;;;;;10.50;2.10;;;;;;2260427;61;2001;-86
2022/11/07 23:52:37;287955.00;0.96;497.21;0.00;0.00;0.62;;;;;10.40;2.30;;;;;;2260433;61;696;-84
